Kezdőlap
METAR-TAF:

METAR-TAF

Repülőterek :

Morristown, New Jersey, Amerikai Egyesült Államok

földrajzi szélesség: 40-48N, földrajzi hosszúság: 074-25W, magasság: 57 m

Jelenlegi meteorológiai megfigyelések

A jelentés 48 perccel ezelõtt készült, 14:45 UTC
Északi szél 10 kt széllökések: 18 kt
Hőmérséklet -4°C
Páratartalom 63%
Légköri nyomás 1032 hPa
Látótávolság: 16.1 km
Derült ég

METAR: KMMU 211445Z 36010G18KT 10SM SKC M04/M10 A3048

Idő: 10:33 (15:33 UTC)


TAF: hiányzik

Meteorológiai megfigyelések és előrejelzések több, mint 4000 repülőtéren (METAR és TAF jelentéseket).

A térképen piros és sárga pontok jelzik az elérhető meteorológiai állomásokat.

Mozgassa az egeret a pont fölött, hogy megjelenjen az állomás neve.

Azután kattintson az időjárási megfigyelések és előrejelzések megtekintéséhez.

A térkép megváltoztatása: kattintson a fekete keresztel jelölt zöld gombra ráközelítéshez, a vonallal jelölt zöld gombra távolításhoz, vagy a zöld nyilakra a szomszédos térképek eléréséhez.


METAR-TAF: